Time;durP1;ratioP1;P1;durP2;ratioP2;P2;SDS_P1;SDS_P2;PMS_P1;PMS_P2;Temp;Humidity;BMP_temperature;BMP_pressure;BME280_temperature;BME280_humidity;BME280_pressure;Samples;Min_cycle;Max_cycle;Signal;HPM_P1;HPM_P2
2021/01/24 00:01:29;;;;;;;26.87;16.90;;;;;;;3.22;88.62;99727.83;1752609;81;21199;-73
2021/01/24 00:03:56;;;;;;;25.62;15.43;;;;;;;3.25;88.60;99723.42;1800458;78;21808;-75
2021/01/24 00:06:24;;;;;;;28.05;18.65;;;;;;;3.28;88.60;99720.32;1800716;78;21619;-75
2021/01/24 00:08:53;;;;;;;31.25;17.80;;;;;;;3.29;88.57;99724.07;1807065;78;21133;-74
2021/01/24 00:11:23;;;;;;;26.55;16.52;;;;;;;3.32;88.56;99724.11;1777199;79;21184;-74
2021/01/24 00:13:54;;;;;;;26.93;17.10;;;;;;;3.31;88.53;99713.27;1749312;80;21199;-74
2021/01/24 00:16:22;;;;;;;24.02;14.85;;;;;;;3.30;88.54;99706.39;1754425;81;21754;-76
2021/01/24 00:18:49;;;;;;;26.73;15.97;;;;;;;3.34;88.51;99699.62;1644396;79;9999792;-72
2021/01/24 00:21:17;;;;;;;28.98;18.10;;;;;;;3.35;88.53;99703.84;1752120;81;21568;-76
2021/01/24 00:23:45;;;;;;;26.50;16.27;;;;;;;3.37;88.53;99695.20;1757916;79;21187;-73
2021/01/24 00:26:12;;;;;;;24.98;15.75;;;;;;;3.38;88.48;99692.03;1752147;79;22230;-74
2021/01/24 00:28:42;;;;;;;23.38;14.53;;;;;;;3.37;88.52;99686.48;1741605;81;21192;-75
2021/01/24 00:31:09;;;;;;;22.98;14.65;;;;;;;3.40;88.49;99674.94;1758870;81;21215;-73
2021/01/24 00:33:37;;;;;;;25.10;16.02;;;;;;;3.40;88.44;99675.46;1764006;80;21715;-74
2021/01/24 00:36:05;;;;;;;23.32;14.20;;;;;;;3.35;88.37;99666.90;1750609;81;21219;-73
2021/01/24 00:38:32;;;;;;;25.30;15.68;;;;;;;3.30;88.34;99664.17;1754021;79;21179;-73
2021/01/24 00:41:04;;;;;;;23.73;13.93;;;;;;;3.27;88.34;99655.39;1748827;81;21723;-73
2021/01/24 00:43:33;;;;;;;23.80;14.43;;;;;;;3.25;88.34;99654.80;1762612;79;21177;-74
2021/01/24 00:46:01;;;;;;;22.65;14.78;;;;;;;3.24;88.34;99654.01;1761329;81;21211;-73
2021/01/24 00:48:36;;;;;;;22.15;15.05;;;;;;;3.20;88.34;99656.83;1761344;79;21247;-74
2021/01/24 00:51:08;;;;;;;24.18;14.70;;;;;;;3.15;88.35;99644.03;1764913;81;22052;-76
2021/01/24 00:53:36;;;;;;;21.57;13.30;;;;;;;3.08;88.34;99637.55;1734361;81;21243;-74
2021/01/24 00:56:06;;;;;;;22.15;13.95;;;;;;;3.08;88.38;99645.98;1755485;81;21275;-73
2021/01/24 00:58:33;;;;;;;21.40;13.88;;;;;;;3.07;88.40;99633.31;1757509;81;22312;-73
2021/01/24 01:01:01;;;;;;;24.95;15.75;;;;;;;3.03;88.41;99632.17;1748518;79;21119;-73
2021/01/24 01:03:29;;;;;;;21.85;13.35;;;;;;;3.02;88.49;99620.80;1743544;81;21350;-73
2021/01/24 01:05:57;;;;;;;17.70;12.40;;;;;;;3.05;88.51;99622.98;1760063;79;21223;-75
2021/01/24 01:08:24;;;;;;;21.00;13.80;;;;;;;3.09;88.59;99627.27;1761110;79;21220;-74
2021/01/24 01:10:53;;;;;;;20.97;14.28;;;;;;;3.18;88.67;99619.82;1769438;79;21254;-75
2021/01/24 01:13:21;;;;;;;19.07;13.08;;;;;;;3.24;88.67;99617.58;1802117;78;21244;-75
2021/01/24 01:15:49;;;;;;;20.17;12.33;;;;;;;3.23;88.61;99614.14;1794489;78;21475;-76
2021/01/24 01:18:16;;;;;;;19.37;12.20;;;;;;;3.18;88.55;99615.86;1788307;79;21075;-76
2021/01/24 01:20:44;;;;;;;18.45;11.95;;;;;;;3.16;88.59;99626.66;1814401;77;21193;-77
2021/01/24 01:23:11;;;;;;;23.92;13.58;;;;;;;3.14;88.67;99617.37;1782309;79;21502;-74
2021/01/24 01:25:39;;;;;;;22.55;13.60;;;;;;;3.16;88.78;99629.80;1800215;78;21268;-76
2021/01/24 01:28:07;;;;;;;21.90;13.08;;;;;;;3.22;88.90;99632.31;1790947;79;22001;-78
2021/01/24 01:30:34;;;;;;;18.37;12.37;;;;;;;3.32;88.95;99629.09;1808937;77;21448;-77
2021/01/24 01:33:02;;;;;;;21.65;13.18;;;;;;;3.39;88.94;99632.92;1801464;79;21173;-77
2021/01/24 01:35:31;;;;;;;22.00;13.58;;;;;;;3.46;88.96;99627.82;1805717;78;21183;-77
2021/01/24 01:37:59;;;;;;;21.77;13.43;;;;;;;3.53;89.03;99625.05;1807444;78;21812;-76
2021/01/24 01:40:26;;;;;;;19.40;12.10;;;;;;;3.62;89.05;99630.75;1808324;79;21916;-75
2021/01/24 01:42:57;;;;;;;18.50;12.55;;;;;;;3.70;89.04;99640.44;1785476;79;21214;-77
2021/01/24 01:45:26;;;;;;;20.60;14.23;;;;;;;3.76;89.02;99624.19;1793136;78;21196;-76
2021/01/24 01:47:55;;;;;;;19.50;12.45;;;;;;;3.83;89.03;99628.80;1795410;79;21204;-76
2021/01/24 01:50:24;;;;;;;19.27;12.10;;;;;;;3.89;89.00;99629.71;1807883;78;22236;-76
2021/01/24 01:52:52;;;;;;;18.95;11.30;;;;;;;3.91;88.90;99627.09;1781034;79;21200;-77
2021/01/24 01:55:19;;;;;;;21.00;13.03;;;;;;;3.94;88.83;99627.95;1805850;78;21238;-77
2021/01/24 01:57:48;;;;;;;21.20;12.95;;;;;;;3.97;88.78;99628.80;1801276;78;21662;-76
2021/01/24 02:00:19;;;;;;;20.20;12.60;;;;;;;3.99;88.74;99622.77;1796464;79;21229;-77
2021/01/24 02:03:18;;;;;;;17.52;12.13;;;;;;;4.02;88.70;99620.70;1808405;78;21215;-75
2021/01/24 02:06:08;;;;;;;16.67;10.82;;;;;;;4.01;88.66;99623.84;1793748;78;21180;-78
2021/01/24 02:09:07;;;;;;;17.65;11.70;;;;;;;4.02;88.58;99613.58;1801105;78;21109;-75
2021/01/24 02:11:44;;;;;;;19.35;12.50;;;;;;;3.98;88.54;99604.50;1750489;79;21083;-76
2021/01/24 02:14:30;;;;;;;18.73;12.25;;;;;;;3.97;88.51;99612.95;1719736;82;21575;-76
2021/01/24 02:17:00;;;;;;;14.75;9.75;;;;;;;3.93;88.50;99609.18;1756983;81;21682;-75
2021/01/24 02:19:53;;;;;;;20.32;10.30;;;;;;;3.92;88.48;99600.19;1768013;79;21264;-75
2021/01/24 02:22:22;;;;;;;15.88;10.23;;;;;;;3.90;88.42;99603.05;1761561;79;21153;-75
2021/01/24 02:24:57;;;;;;;15.05;10.10;;;;;;;3.78;88.40;99598.32;1751823;81;21218;-75
2021/01/24 02:27:41;;;;;;;14.00;9.40;;;;;;;3.67;88.40;99589.41;1757715;81;21481;-74
2021/01/24 02:30:25;;;;;;;14.93;8.65;;;;;;;3.60;88.51;99594.55;1754849;81;21157;-75
2021/01/24 02:33:03;;;;;;;15.20;10.78;;;;;;;3.58;88.62;99591.33;1792170;79;22229;-74
2021/01/24 02:35:38;;;;;;;15.83;10.20;;;;;;;3.59;88.74;99590.32;1806823;78;21168;-75
2021/01/24 02:38:05;;;;;;;15.70;10.00;;;;;;;3.60;88.87;99583.99;1808084;78;21267;-75
2021/01/24 02:40:37;;;;;;;14.20;9.50;;;;;;;3.64;88.98;99588.56;1802990;79;21188;-75
2021/01/24 02:43:07;;;;;;;13.70;9.20;;;;;;;3.71;89.08;99581.81;1792251;79;21254;-74
2021/01/24 02:45:43;;;;;;;13.88;10.03;;;;;;;3.76;89.14;99583.25;1810996;78;21379;-75
2021/01/24 02:48:13;;;;;;;15.08;10.35;;;;;;;3.78;89.18;99583.00;1801452;79;21173;-74
2021/01/24 02:50:41;;;;;;;13.90;9.55;;;;;;;3.80;89.28;99582.25;1810728;79;21168;-74
2021/01/24 02:53:09;;;;;;;13.98;8.98;;;;;;;3.82;89.33;99579.66;1809840;79;21117;-73
2021/01/24 02:55:36;;;;;;;13.50;9.38;;;;;;;3.84;89.37;99584.17;1812506;77;21168;-74
2021/01/24 02:58:05;;;;;;;15.13;10.18;;;;;;;3.85;89.42;99571.77;1811403;78;21346;-74
2021/01/24 03:00:33;;;;;;;14.58;9.75;;;;;;;3.86;89.49;99566.26;1814380;78;21106;-73
2021/01/24 03:03:01;;;;;;;14.25;9.13;;;;;;;3.86;89.54;99566.26;1781419;79;21261;-74
2021/01/24 03:05:28;;;;;;;11.88;9.00;;;;;;;3.84;89.60;99561.72;1807310;78;21183;-75
2021/01/24 03:07:56;;;;;;;13.18;8.83;;;;;;;3.86;89.66;99561.50;1743260;80;21199;-75
2021/01/24 03:10:25;;;;;;;13.68;9.53;;;;;;;3.83;89.71;99549.56;1760620;79;21397;-75
2021/01/24 03:13:26;;;;;;;13.85;9.43;;;;;;;3.84;89.83;99554.32;1754411;79;21173;-75
2021/01/24 03:15:54;;;;;;;16.87;10.08;;;;;;;3.84;89.89;99545.88;1761437;80;21215;-74
2021/01/24 03:18:26;;;;;;;16.07;10.35;;;;;;;3.83;89.99;99534.23;1741946;81;21203;-74
2021/01/24 03:20:55;;;;;;;16.67;10.65;;;;;;;3.84;90.04;99535.30;1725564;82;21212;-75
2021/01/24 03:23:23;;;;;;;13.32;8.98;;;;;;;3.87;90.12;99534.03;1714888;81;21216;-75
2021/01/24 03:25:50;;;;;;;17.57;10.60;;;;;;;3.86;90.21;99529.80;1796402;79;21200;-74
2021/01/24 03:28:18;;;;;;;14.18;8.90;;;;;;;3.85;90.32;99525.05;1804605;78;21156;-75
2021/01/24 03:30:49;;;;;;;15.90;10.08;;;;;;;3.87;90.46;99527.44;1802247;79;22144;-75
2021/01/24 03:33:17;;;;;;;17.48;11.70;;;;;;;3.88;90.52;99525.06;1803748;78;21670;-76
2021/01/24 03:35:45;;;;;;;18.05;12.03;;;;;;;3.92;90.63;99522.25;1793068;79;22280;-76
2021/01/24 03:38:12;;;;;;;19.20;12.75;;;;;;;3.97;90.77;99524.96;1805681;79;21151;-75
2021/01/24 03:40:40;;;;;;;17.52;11.55;;;;;;;4.05;90.84;99529.05;1802699;78;21213;-75
2021/01/24 03:43:07;;;;;;;18.95;10.95;;;;;;;4.11;90.90;99526.24;1813504;78;21198;-76
2021/01/24 03:45:34;;;;;;;15.85;10.72;;;;;;;4.19;90.93;99521.10;1797196;78;21283;-76
2021/01/24 03:48:03;;;;;;;15.72;10.35;;;;;;;4.22;90.90;99514.81;1801137;78;21356;-76
2021/01/24 03:50:30;;;;;;;15.80;10.58;;;;;;;4.23;90.88;99515.08;1809165;78;21183;-76
2021/01/24 03:52:58;;;;;;;18.95;12.82;;;;;;;4.26;90.94;99523.59;1804813;79;21168;-75
2021/01/24 03:55:25;;;;;;;17.45;11.10;;;;;;;4.29;90.97;99519.94;1791652;78;21586;-75
2021/01/24 03:57:53;;;;;;;18.15;11.33;;;;;;;4.33;90.97;99523.70;1794781;79;21201;-76
2021/01/24 04:00:21;;;;;;;15.05;9.90;;;;;;;4.36;90.97;99525.86;1792992;79;21812;-76
2021/01/24 04:02:49;;;;;;;16.45;11.35;;;;;;;4.38;91.00;99517.70;1798680;78;21208;-76
2021/01/24 04:05:17;;;;;;;16.85;11.53;;;;;;;4.37;91.01;99522.69;1802268;79;21164;-77
2021/01/24 04:07:45;;;;;;;19.37;11.18;;;;;;;4.39;91.02;99520.61;1790912;78;21754;-76
2021/01/24 04:10:13;;;;;;;20.05;11.43;;;;;;;4.43;91.06;99515.12;1796331;79;21423;-76
2021/01/24 04:12:41;;;;;;;17.73;11.95;;;;;;;4.51;91.12;99513.90;1784852;79;21361;-76
2021/01/24 04:15:10;;;;;;;16.23;10.75;;;;;;;4.55;91.11;99515.04;1800540;79;21176;-77
2021/01/24 04:17:38;;;;;;;16.95;11.20;;;;;;;4.58;91.09;99510.06;1809994;79;21192;-77
2021/01/24 04:20:08;;;;;;;16.23;10.90;;;;;;;4.59;91.05;99514.30;1793501;78;21464;-78
2021/01/24 04:22:35;;;;;;;17.75;12.25;;;;;;;4.63;91.04;99513.29;1808888;79;21607;-77
2021/01/24 04:25:06;;;;;;;15.05;10.28;;;;;;;4.64;91.01;99505.13;1794192;78;21385;-77
2021/01/24 04:27:34;;;;;;;15.45;10.88;;;;;;;4.66;90.99;99502.22;1792139;79;21203;-76
2021/01/24 04:30:04;;;;;;;14.63;10.10;;;;;;;4.62;90.94;99495.83;1800252;78;21344;-77
2021/01/24 04:32:31;;;;;;;15.32;9.85;;;;;;;4.59;90.93;99499.75;1811814;79;21132;-77
2021/01/24 04:34:59;;;;;;;14.75;10.32;;;;;;;4.61;90.94;99500.32;1804728;78;21201;-77
2021/01/24 04:37:27;;;;;;;16.00;10.95;;;;;;;4.62;90.91;99503.23;1819080;78;21580;-78
2021/01/24 04:39:56;;;;;;;17.82;11.53;;;;;;;4.62;90.93;99493.19;1804680;78;21186;-78
2021/01/24 04:42:24;;;;;;;16.17;11.03;;;;;;;4.64;90.93;99493.72;1810684;79;21117;-78
2021/01/24 04:44:56;;;;;;;14.53;9.83;;;;;;;4.67;90.94;99481.34;1806908;79;21173;-77
2021/01/24 04:47:25;;;;;;;14.58;9.60;;;;;;;4.66;90.93;99473.13;1747981;81;21173;-78
2021/01/24 04:49:52;;;;;;;15.23;10.35;;;;;;;4.67;90.91;99471.58;1738200;81;21906;-78
2021/01/24 04:52:20;;;;;;;14.83;9.98;;;;;;;4.64;90.87;99469.92;1688494;83;21212;-77
2021/01/24 04:54:50;;;;;;;14.98;10.30;;;;;;;4.62;90.89;99467.53;1741625;81;21167;-77
2021/01/24 04:57:19;;;;;;;15.93;10.88;;;;;;;4.64;90.91;99469.92;1774933;79;21203;-77
2021/01/24 04:59:47;;;;;;;17.65;11.05;;;;;;;4.66;90.94;99475.77;1763295;79;21164;-77
2021/01/24 05:02:16;;;;;;;16.62;10.50;;;;;;;4.68;90.98;99475.81;1790000;79;21861;-77
2021/01/24 05:04:43;;;;;;;14.78;9.23;;;;;;;4.70;90.99;99469.77;1784007;79;21616;-78
2021/01/24 05:07:13;;;;;;;15.48;9.70;;;;;;;4.70;90.98;99479.03;1808523;79;21165;-77
2021/01/24 05:09:41;;;;;;;15.25;10.58;;;;;;;4.73;90.99;99479.03;1805521;77;21065;-76
2021/01/24 05:12:09;;;;;;;13.32;9.23;;;;;;;4.74;91.03;99476.69;1798254;78;21195;-77
2021/01/24 05:14:39;;;;;;;13.95;9.38;;;;;;;4.78;91.03;99482.29;1786794;78;22399;-77
2021/01/24 05:17:06;;;;;;;13.35;8.90;;;;;;;4.80;91.05;99481.50;1754346;79;21648;-78
2021/01/24 05:19:35;;;;;;;13.62;9.55;;;;;;;4.81;91.02;99477.84;1805959;78;21170;-78
2021/01/24 05:22:04;;;;;;;16.85;11.88;;;;;;;4.81;91.00;99473.87;1804430;79;21275;-77
2021/01/24 05:24:32;;;;;;;18.10;11.75;;;;;;;4.81;90.98;99471.22;1816113;78;21097;-78
2021/01/24 05:27:11;;;;;;;16.70;10.80;;;;;;;4.79;91.00;99472.77;1793313;79;21346;-77
2021/01/24 05:29:43;;;;;;;13.88;9.43;;;;;;;4.79;90.98;99468.80;1787000;78;21179;-76
2021/01/24 05:32:12;;;;;;;15.23;9.95;;;;;;;4.79;91.01;99460.87;1795057;78;21136;-76
2021/01/24 05:34:44;;;;;;;13.78;9.58;;;;;;;4.80;90.99;99470.92;1818976;78;21156;-78
2021/01/24 05:37:11;;;;;;;14.13;10.20;;;;;;;4.83;90.97;99472.55;1797321;78;21132;-77
2021/01/24 05:39:39;;;;;;;15.58;10.25;;;;;;;4.86;90.99;99468.09;1788510;78;21381;-77
2021/01/24 05:42:08;;;;;;;15.65;10.60;;;;;;;4.88;90.96;99459.40;1734341;78;21210;-76
2021/01/24 05:44:36;;;;;;;15.32;10.58;;;;;;;4.91;90.94;99464.73;1778362;79;21185;-78
2021/01/24 05:47:04;;;;;;;12.35;8.45;;;;;;;4.92;90.92;99464.47;1810462;79;22227;-78
2021/01/24 05:49:33;;;;;;;15.90;11.68;;;;;;;4.93;90.91;99459.44;1811315;78;21603;-80
2021/01/24 05:52:06;;;;;;;14.07;9.68;;;;;;;4.93;90.89;99460.77;1801159;78;21480;-79
2021/01/24 05:54:45;;;;;;;15.03;10.10;;;;;;;4.91;90.83;99454.94;1805167;78;21164;-79
2021/01/24 05:57:16;;;;;;;17.65;11.75;;;;;;;4.86;90.73;99450.10;1807217;78;21172;-80
2021/01/24 05:59:58;;;;;;;17.07;10.50;;;;;;;4.81;90.78;99444.23;1805825;78;21959;-77
2021/01/24 06:02:27;;;;;;;19.23;11.33;;;;;;;4.80;90.80;99441.82;1804046;78;21465;-77
2021/01/24 06:04:56;;;;;;;16.82;10.90;;;;;;;4.79;90.85;99438.38;1807435;78;21381;-76
2021/01/24 06:07:24;;;;;;;17.82;11.63;;;;;;;4.79;90.89;99441.03;1786576;79;21204;-77
2021/01/24 06:09:53;;;;;;;19.17;12.55;;;;;;;4.82;90.94;99439.22;1807119;78;21692;-78
2021/01/24 06:12:23;;;;;;;19.45;12.60;;;;;;;4.87;91.01;99432.67;1801502;79;21222;-78
2021/01/24 06:14:52;;;;;;;20.30;13.20;;;;;;;4.91;91.00;99439.06;1793593;79;21161;-79
2021/01/24 06:17:37;;;;;;;19.75;12.95;;;;;;;4.91;90.99;99443.03;1764643;79;21465;-78
2021/01/24 06:20:06;;;;;;;19.25;12.43;;;;;;;4.97;91.03;99441.26;1809197;78;21220;-79
2021/01/24 06:23:03;;;;;;;19.98;12.58;;;;;;;5.01;91.03;99438.38;1799345;78;21164;-78
2021/01/24 06:25:33;;;;;;;22.62;13.55;;;;;;;5.05;91.04;99434.19;1805066;78;21735;-78
2021/01/24 06:28:13;;;;;;;21.48;14.18;;;;;;;5.09;91.05;99423.38;1802467;79;21140;-82
2021/01/24 06:30:43;;;;;;;22.55;14.20;;;;;;;5.15;91.05;99433.50;1805013;78;21269;-78
2021/01/24 06:33:21;;;;;;;23.90;15.30;;;;;;;5.18;91.03;99429.03;1735402;80;21156;-77
2021/01/24 06:36:00;;;;;;;22.27;15.88;;;;;;;5.15;90.98;99433.50;1799661;78;21160;-79
2021/01/24 06:38:35;;;;;;;23.77;15.63;;;;;;;5.17;91.01;99442.00;1807255;79;21598;-79
2021/01/24 06:41:08;;;;;;;29.30;16.50;;;;;;;5.20;91.05;99437.54;1803195;79;21211;-78
2021/01/24 06:43:42;;;;;;;25.02;15.70;;;;;;;5.25;91.05;99430.16;1802896;79;21424;-78
2021/01/24 06:46:30;;;;;;;22.22;14.47;;;;;;;5.25;91.03;99433.61;1806392;79;21167;-79
2021/01/24 06:48:58;;;;;;;24.35;16.73;;;;;;;5.28;91.06;99429.14;1795569;78;21499;-79
2021/01/24 06:51:40;;;;;;;25.12;16.40;;;;;;;5.32;91.05;99436.05;1803017;78;21251;-79
2021/01/24 06:54:20;;;;;;;27.22;17.45;;;;;;;5.37;91.09;99431.62;1799917;79;21592;-80
2021/01/24 06:56:48;;;;;;;26.73;17.32;;;;;;;5.38;91.02;99433.20;1803666;79;21189;-79
2021/01/24 06:59:17;;;;;;;24.30;15.78;;;;;;;5.40;91.02;99433.77;1813830;78;21192;-79
2021/01/24 07:01:45;;;;;;;25.68;16.70;;;;;;;5.45;91.03;99429.56;1791408;79;21211;-79
2021/01/24 07:04:30;;;;;;;26.33;17.50;;;;;;;5.48;91.02;99435.69;1773160;79;21180;-79
2021/01/24 07:07:16;;;;;;;27.48;17.52;;;;;;;5.51;90.98;99439.16;1804100;78;21188;-79
2021/01/24 07:09:47;;;;;;;28.55;18.32;;;;;;;5.54;90.90;99438.66;1815048;78;21810;-78
2021/01/24 07:12:15;;;;;;;27.98;17.23;;;;;;;5.54;90.87;99436.02;1799037;78;21164;-81
2021/01/24 07:14:45;;;;;;;25.40;17.73;;;;;;;5.55;90.81;99437.60;1800018;79;21148;-80
2021/01/24 07:17:18;;;;;;;29.25;17.12;;;;;;;5.56;90.79;99433.89;1799648;79;21215;-80
2021/01/24 07:19:53;;;;;;;27.20;16.50;;;;;;;5.57;90.74;99435.52;1806520;78;21212;-80
2021/01/24 07:22:23;;;;;;;27.35;17.27;;;;;;;5.58;90.72;99433.92;1806060;78;21516;-80
2021/01/24 07:24:53;;;;;;;23.07;16.70;;;;;;;5.59;90.69;99428.92;1800605;78;22368;-83
2021/01/24 07:27:26;;;;;;;27.65;16.80;;;;;;;5.62;90.66;99423.62;1800578;78;21197;-79
2021/01/24 07:29:56;;;;;;;27.98;16.73;;;;;;;5.63;90.64;99435.84;1799519;79;21183;-79
2021/01/24 07:32:26;;;;;;;27.65;17.02;;;;;;;5.64;90.62;99430.80;1792110;79;21187;-79
2021/01/24 07:34:55;;;;;;;28.55;17.17;;;;;;;5.68;90.64;99428.45;1799061;79;21447;-79
2021/01/24 07:37:23;;;;;;;25.35;16.32;;;;;;;5.74;90.62;99430.09;1796300;78;21209;-79
2021/01/24 07:39:52;;;;;;;28.67;16.45;;;;;;;5.76;90.54;99425.31;1791133;78;21184;-78
2021/01/24 07:42:20;;;;;;;26.52;15.70;;;;;;;5.78;90.50;99429.85;1796772;77;21148;-79
2021/01/24 07:44:48;;;;;;;27.42;15.90;;;;;;;5.78;90.47;99429.32;1800747;79;21667;-80
2021/01/24 07:47:15;;;;;;;25.45;15.65;;;;;;;5.82;90.40;99429.61;1799475;78;22258;-79
2021/01/24 07:49:44;;;;;;;25.62;15.68;;;;;;;5.84;90.39;99425.66;1814771;78;21189;-79
2021/01/24 07:52:11;;;;;;;26.17;15.95;;;;;;;5.86;90.28;99428.08;1802578;78;21196;-80
2021/01/24 07:54:40;;;;;;;26.12;16.15;;;;;;;5.86;90.23;99423.57;1796518;78;21623;-80
2021/01/24 07:57:09;;;;;;;23.45;15.78;;;;;;;5.88;90.24;99420.13;1795225;79;21694;-79
2021/01/24 07:59:37;;;;;;;25.12;16.32;;;;;;;5.92;90.17;99420.94;1732240;79;21458;-80
2021/01/24 08:02:05;;;;;;;27.42;15.88;;;;;;;5.93;90.09;99420.73;1744545;79;21204;-77
2021/01/24 08:04:36;;;;;;;25.17;15.55;;;;;;;5.96;90.09;99415.45;1801676;78;21133;-79
2021/01/24 08:07:12;;;;;;;26.27;14.13;;;;;;;6.01;90.04;99415.48;1803120;78;21674;-79
2021/01/24 08:09:40;;;;;;;28.60;15.43;;;;;;;6.06;89.97;99415.00;1810526;78;21596;-79
2021/01/24 08:12:12;;;;;;;29.20;15.95;;;;;;;6.08;89.86;99416.05;1813719;78;21196;-81
2021/01/24 08:14:40;;;;;;;24.80;16.00;;;;;;;6.08;89.73;99410.22;1802797;79;21121;-78
2021/01/24 08:17:11;;;;;;;27.25;15.25;;;;;;;6.09;89.66;99416.34;1767421;78;21180;-79
2021/01/24 08:19:41;;;;;;;24.02;14.73;;;;;;;6.12;89.59;99409.21;1818900;78;21180;-79
2021/01/24 08:22:10;;;;;;;25.10;14.80;;;;;;;6.14;89.50;99404.97;1798687;78;21183;-80
2021/01/24 08:24:40;;;;;;;25.60;14.70;;;;;;;6.17;89.46;99399.16;1795104;79;21413;-80
2021/01/24 08:27:08;;;;;;;25.68;13.68;;;;;;;6.21;89.35;99402.34;1797088;78;21204;-80
2021/01/24 08:29:37;;;;;;;20.85;12.70;;;;;;;6.21;89.21;99393.06;1779381;79;21174;-80
2021/01/24 08:32:06;;;;;;;22.50;13.95;;;;;;;6.22;89.15;99395.19;1758132;79;21175;-80
2021/01/24 08:34:35;;;;;;;19.23;12.70;;;;;;;6.20;89.03;99395.45;1804626;78;21149;-80
2021/01/24 08:37:05;;;;;;;21.02;12.33;;;;;;;6.24;89.05;99395.20;1799809;77;21343;-81
2021/01/24 08:39:33;;;;;;;22.40;13.03;;;;;;;6.27;89.00;99389.39;1810308;79;21179;-78
2021/01/24 08:42:05;;;;;;;23.38;13.53;;;;;;;6.32;88.94;99391.30;1799224;79;21174;-79
2021/01/24 08:44:35;;;;;;;20.40;12.93;;;;;;;6.37;88.89;99390.52;1796167;79;21168;-79
2021/01/24 08:47:07;;;;;;;20.35;12.68;;;;;;;6.40;88.83;99386.02;1801800;78;21014;-77
2021/01/24 08:49:35;;;;;;;22.62;12.00;;;;;;;6.45;88.72;99392.66;1818997;78;21839;-79
2021/01/24 08:52:05;;;;;;;22.42;12.93;;;;;;;6.49;88.68;99386.59;1800071;79;21136;-78
2021/01/24 08:54:37;;;;;;;21.97;12.30;;;;;;;6.55;88.58;99386.10;1794375;78;21203;-78
2021/01/24 08:57:16;;;;;;;21.12;12.80;;;;;;;6.58;88.41;99381.08;1799908;78;21168;-77
2021/01/24 08:59:58;;;;;;;24.02;13.35;;;;;;;6.59;88.23;99383.20;1794736;79;21126;-78
2021/01/24 09:02:38;;;;;;;23.02;13.88;;;;;;;6.59;88.10;99384.52;1791868;79;21588;-79
2021/01/24 09:05:08;;;;;;;22.17;11.80;;;;;;;6.61;87.99;99382.92;1802618;78;21222;-79
2021/01/24 09:07:46;;;;;;;20.48;12.03;;;;;;;6.64;87.90;99380.55;1791430;78;21183;-79
2021/01/24 09:10:31;;;;;;;22.05;11.55;;;;;;;6.68;87.82;99384.30;1806860;79;21156;-79
2021/01/24 09:13:01;;;;;;;23.27;11.73;;;;;;;6.70;87.71;99380.05;1811675;79;21683;-77
2021/01/24 09:15:34;;;;;;;18.48;11.15;;;;;;;6.75;87.59;99381.41;1799311;78;21181;-77
2021/01/24 09:18:04;;;;;;;16.70;10.13;;;;;;;6.77;87.46;99376.08;1804124;78;21615;-79
2021/01/24 09:20:37;;;;;;;14.23;9.33;;;;;;;6.81;87.31;99379.01;1812402;78;21160;-79
2021/01/24 09:23:18;;;;;;;17.10;10.70;;;;;;;6.77;87.05;99372.09;1780194;79;21617;-77
2021/01/24 09:25:47;;;;;;;19.45;10.75;;;;;;;6.76;86.97;99368.39;1792568;79;21202;-78
2021/01/24 09:28:16;;;;;;;17.60;10.88;;;;;;;6.76;86.85;99359.89;1774808;79;21206;-76
2021/01/24 09:30:44;;;;;;;17.57;10.85;;;;;;;6.77;86.78;99362.81;1777712;79;21203;-77
2021/01/24 09:33:12;;;;;;;18.12;10.55;;;;;;;6.79;86.68;99362.03;1765703;79;21128;-77
2021/01/24 09:35:40;;;;;;;18.20;10.53;;;;;;;6.86;86.63;99354.36;1763805;79;21188;-78
2021/01/24 09:38:08;;;;;;;18.62;9.78;;;;;;;6.92;86.55;99351.98;1762209;80;21207;-77
2021/01/24 09:40:36;;;;;;;17.55;9.63;;;;;;;6.98;86.46;99346.96;1759116;80;22221;-78
2021/01/24 09:43:05;;;;;;;16.17;9.13;;;;;;;7.05;86.38;99347.50;1768928;79;21211;-78
2021/01/24 09:45:34;;;;;;;16.77;8.85;;;;;;;7.12;86.26;99341.94;1739590;81;21177;-78
2021/01/24 09:48:08;;;;;;;14.60;8.80;;;;;;;7.19;86.09;99344.59;1757932;80;21167;-78
2021/01/24 09:50:42;;;;;;;15.38;8.90;;;;;;;7.22;85.82;99332.11;1812234;78;21164;-77
2021/01/24 09:53:10;;;;;;;19.67;9.13;;;;;;;7.23;85.64;99328.39;1789546;78;21632;-78
2021/01/24 09:55:41;;;;;;;16.60;9.33;;;;;;;7.28;85.43;99325.75;1788927;79;21212;-78
2021/01/24 09:58:13;;;;;;;15.55;9.78;;;;;;;7.28;85.18;99326.28;1795724;79;21141;-78
2021/01/24 10:00:43;;;;;;;16.90;9.45;;;;;;;7.29;85.03;99327.33;1794634;78;21179;-78
2021/01/24 10:03:12;;;;;;;19.10;9.15;;;;;;;7.31;84.82;99319.65;1811714;78;21624;-78
2021/01/24 10:05:43;;;;;;;16.20;8.43;;;;;;;7.29;84.63;99320.69;1794963;78;21184;-78
2021/01/24 10:08:12;;;;;;;12.35;7.85;;;;;;;7.33;84.53;99318.84;1802406;78;21826;-78
2021/01/24 10:10:42;;;;;;;15.05;8.70;;;;;;;7.35;84.37;99314.86;1818266;78;21171;-78
2021/01/24 10:13:09;;;;;;;14.40;8.08;;;;;;;7.36;84.20;99317.77;1800730;78;21172;-77
2021/01/24 10:15:38;;;;;;;13.30;7.75;;;;;;;7.42;84.21;99312.73;1792863;79;21195;-77
2021/01/24 10:18:06;;;;;;;15.40;9.20;;;;;;;7.54;84.17;99312.47;1795603;78;21362;-77
2021/01/24 10:20:34;;;;;;;15.10;7.85;;;;;;;7.65;83.95;99306.59;1801548;78;21149;-77
2021/01/24 10:23:02;;;;;;;15.80;8.73;;;;;;;7.73;83.70;99301.55;1810747;78;21679;-79
2021/01/24 10:25:31;;;;;;;16.45;8.45;;;;;;;7.80;83.46;99303.11;1795593;79;21176;-79
2021/01/24 10:27:59;;;;;;;14.83;7.83;;;;;;;7.83;83.19;99295.42;1767501;80;21271;-79
2021/01/24 10:30:27;;;;;;;14.18;8.75;;;;;;;7.86;82.99;99293.52;1736040;81;21405;-77
2021/01/24 10:32:57;;;;;;;16.32;8.48;;;;;;;7.91;82.61;99297.52;1762447;80;21259;-76
2021/01/24 10:35:25;;;;;;;14.90;7.37;;;;;;;7.97;82.54;99294.31;1778350;79;21177;-77
2021/01/24 10:37:53;;;;;;;12.45;7.58;;;;;;;8.09;82.35;99288.67;1772126;79;21212;-79
2021/01/24 10:40:23;;;;;;;15.03;7.87;;;;;;;8.18;82.09;99290.50;1753697;80;21147;-78
2021/01/24 10:42:53;;;;;;;11.12;6.42;;;;;;;8.27;81.85;99287.30;1761338;81;21445;-79
2021/01/24 10:45:22;;;;;;;14.20;7.10;;;;;;;8.29;81.41;99284.63;1759245;80;21616;-78
2021/01/24 10:47:53;;;;;;;12.40;7.90;;;;;;;8.32;81.07;99289.38;1763509;79;21188;-78
2021/01/24 10:50:22;;;;;;;15.18;7.90;;;;;;;8.36;80.83;99283.00;1763635;81;21204;-78
2021/01/24 10:52:50;;;;;;;16.12;8.40;;;;;;;8.38;80.44;99275.02;1775491;80;21157;-79
2021/01/24 10:55:17;;;;;;;13.80;7.00;;;;;;;8.37;80.21;99283.26;1757303;79;21240;-79
2021/01/24 10:57:45;;;;;;;13.55;7.33;;;;;;;8.42;80.16;99268.11;1782453;79;21176;-78
2021/01/24 11:00:14;;;;;;;12.30;6.83;;;;;;;8.49;79.97;99274.97;1721634;81;21199;-79
2021/01/24 11:02:41;;;;;;;13.03;7.03;;;;;;;8.53;79.74;99273.38;1722771;81;21251;-78
2021/01/24 11:05:10;;;;;;;12.37;7.20;;;;;;;8.53;79.44;99268.84;1731916;81;21220;-79
2021/01/24 11:07:40;;;;;;;13.83;6.78;;;;;;;8.52;79.08;99268.55;1727987;81;21242;-79
2021/01/24 11:10:12;;;;;;;14.78;7.40;;;;;;;8.47;78.87;99271.80;1730517;81;21202;-79
2021/01/24 11:12:40;;;;;;;13.65;7.10;;;;;;;8.44;78.74;99267.81;1756007;79;21171;-79
2021/01/24 11:15:10;;;;;;;15.88;7.22;;;;;;;8.46;78.68;99265.69;1744655;81;21162;-79
2021/01/24 11:17:38;;;;;;;13.72;7.28;;;;;;;8.51;78.51;99268.84;1760937;79;21236;-79
2021/01/24 11:20:08;;;;;;;13.35;7.62;;;;;;;8.53;78.43;99264.05;1802478;79;21211;-78
2021/01/24 11:22:39;;;;;;;14.18;7.30;;;;;;;8.58;78.29;99264.01;1818398;78;21052;-79
2021/01/24 11:25:09;;;;;;;14.33;7.35;;;;;;;8.58;78.11;99258.15;1806335;78;21149;-79
2021/01/24 11:27:39;;;;;;;12.95;7.00;;;;;;;8.59;77.97;99268.28;1804369;79;21175;-78
2021/01/24 11:30:09;;;;;;;11.28;6.35;;;;;;;8.62;77.87;99263.72;1810778;78;21192;-77
2021/01/24 11:32:40;;;;;;;12.88;7.05;;;;;;;8.64;77.81;99255.72;1815844;79;21197;-80
2021/01/24 11:35:15;;;;;;;18.02;8.00;;;;;;;8.71;77.71;99255.95;1812113;77;21140;-79
2021/01/24 11:37:43;;;;;;;16.30;7.53;;;;;;;8.76;77.56;99252.73;1799849;78;21140;-80
2021/01/24 11:40:13;;;;;;;14.63;6.85;;;;;;;8.84;77.49;99254.79;1811555;78;21143;-78
2021/01/24 11:42:41;;;;;;;15.83;7.72;;;;;;;8.92;77.17;99252.09;1803541;79;21073;-79